createdAt,value
2017-03-30T00:00:34.318Z,75.80
2017-03-30T00:01:34.344Z,75.80
2017-03-30T00:02:34.430Z,75.80
2017-03-30T00:03:34.785Z,75.60
2017-03-30T00:04:35.003Z,75.50
2017-03-30T00:05:35.038Z,75.30
2017-03-30T00:06:35.162Z,75.40
2017-03-30T00:07:35.150Z,75.00
2017-03-30T00:08:35.533Z,75.10
2017-03-30T00:09:35.602Z,74.90
2017-03-30T00:10:35.662Z,74.90
2017-03-30T00:11:35.698Z,75.10
2017-03-30T00:12:35.863Z,74.80
2017-03-30T00:13:36.491Z,74.90
2017-03-30T00:14:36.485Z,74.50
2017-03-30T00:15:36.544Z,74.40
2017-03-30T00:16:42.874Z,74.70
2017-03-30T00:17:42.901Z,74.40
2017-03-30T00:18:43.369Z,74.50
2017-03-30T00:19:43.331Z,74.30
2017-03-30T00:20:43.356Z,75.10
2017-03-30T00:21:43.479Z,74.30
2017-03-30T00:22:43.559Z,73.90
2017-03-30T00:23:43.873Z,74.00
2017-03-30T00:24:44.033Z,74.00
2017-03-30T00:25:44.054Z,74.00
2017-03-30T00:26:44.190Z,74.20
2017-03-30T00:27:44.218Z,73.90
2017-03-30T00:28:44.588Z,73.80
2017-03-30T00:29:44.610Z,73.90
2017-03-30T00:30:44.673Z,74.00
2017-03-30T00:31:44.743Z,74.00
2017-03-30T00:32:44.877Z,74.00
2017-03-30T00:33:45.214Z,73.70
2017-03-30T00:34:45.276Z,73.90
2017-03-30T00:35:45.458Z,74.10
2017-03-30T00:36:45.502Z,73.90
2017-03-30T00:37:45.539Z,73.70
2017-03-30T00:38:45.957Z,73.90
2017-03-30T00:39:45.967Z,74.10
2017-03-30T00:40:45.967Z,74.00
2017-03-30T00:41:45.979Z,74.10
2017-03-30T00:42:45.993Z,74.00
2017-03-30T00:43:46.375Z,73.90
2017-03-30T00:44:46.433Z,73.80
2017-03-30T00:45:46.426Z,73.80
2017-03-30T00:46:46.462Z,73.80
2017-03-30T00:47:46.441Z,73.70
2017-03-30T00:48:47.665Z,73.90
2017-03-30T00:49:47.677Z,73.60
2017-03-30T00:50:48.366Z,73.70
2017-03-30T00:51:48.393Z,73.80
2017-03-30T00:52:49.180Z,73.70
2017-03-30T00:53:50.270Z,73.70
2017-03-30T00:54:50.347Z,73.90
2017-03-30T00:55:50.402Z,74.00
2017-03-30T00:56:50.517Z,73.90
2017-03-30T00:57:50.577Z,74.00
2017-03-30T00:58:50.901Z,74.10
2017-03-30T00:59:50.917Z,73.90
2017-03-30T01:00:51.019Z,73.70
2017-03-30T01:01:51.214Z,74.00
2017-03-30T01:02:51.243Z,74.60
2017-03-30T01:03:52.467Z,73.90
2017-03-30T01:04:52.438Z,73.90
2017-03-30T01:05:52.424Z,74.20
2017-03-30T01:06:52.568Z,73.90
2017-03-30T01:07:52.694Z,74.40
2017-03-30T01:08:53.154Z,74.40
2017-03-30T01:09:53.221Z,74.70
2017-03-30T01:10:53.359Z,75.00
2017-03-30T01:11:53.366Z,75.10
2017-03-30T01:12:53.422Z,74.40
2017-03-30T01:13:53.859Z,75.00
2017-03-30T01:14:53.998Z,75.00
2017-03-30T01:15:54.001Z,74.70
2017-03-30T01:16:54.086Z,75.10
2017-03-30T01:17:54.158Z,75.00
2017-03-30T01:18:54.502Z,75.00
2017-03-30T01:19:55.447Z,74.90
2017-03-30T01:20:55.492Z,74.80
2017-03-30T01:21:55.614Z,75.00
2017-03-30T01:22:55.666Z,75.10
2017-03-30T01:23:56.101Z,75.30
2017-03-30T01:24:56.140Z,75.40
2017-03-30T01:25:56.287Z,75.40
2017-03-30T01:26:56.376Z,75.40
2017-03-30T01:27:56.563Z,75.20
2017-03-30T01:28:57.031Z,75.10
2017-03-30T01:29:57.631Z,75.40
2017-03-30T01:30:57.636Z,75.40
2017-03-30T01:31:57.747Z,75.10
2017-03-30T01:32:57.839Z,75.30
2017-03-30T01:33:58.506Z,75.10
2017-03-30T01:34:58.585Z,75.30
2017-03-30T01:35:58.786Z,75.50
2017-03-30T01:36:58.827Z,75.40
2017-03-30T01:37:59.716Z,75.50
2017-03-30T01:39:00.174Z,75.30
2017-03-30T01:40:00.254Z,75.10
2017-03-30T01:41:00.365Z,75.40
2017-03-30T01:42:00.455Z,75.80
2017-03-30T01:43:00.555Z,75.50
2017-03-30T01:44:00.993Z,75.60
2017-03-30T01:45:01.069Z,75.50
2017-03-30T01:46:01.138Z,75.90
2017-03-30T01:47:01.195Z,75.80
2017-03-30T01:48:01.146Z,76.00
2017-03-30T01:49:01.667Z,75.80
2017-03-30T01:50:02.410Z,75.80
2017-03-30T01:51:02.475Z,75.60
2017-03-30T01:52:02.515Z,76.00
2017-03-30T01:53:02.541Z,75.80
2017-03-30T01:54:02.927Z,75.80
2017-03-30T01:55:03.425Z,75.70
2017-03-30T01:56:03.411Z,75.70
2017-03-30T01:57:03.456Z,76.30
2017-03-30T01:58:03.494Z,76.30
2017-03-30T01:59:03.986Z,76.30
2017-03-30T02:00:04.054Z,76.30
2017-03-30T02:01:04.049Z,76.40
2017-03-30T02:02:04.067Z,76.30
2017-03-30T02:03:04.205Z,76.50
2017-03-30T02:04:04.645Z,76.60
2017-03-30T02:05:04.691Z,76.70
2017-03-30T02:06:04.846Z,76.40
2017-03-30T02:07:04.862Z,76.30
2017-03-30T02:08:05.601Z,76.50
2017-03-30T02:09:06.058Z,77.10
2017-03-30T02:10:06.100Z,76.50
2017-03-30T02:11:06.114Z,76.60
2017-03-30T02:12:06.861Z,76.70
2017-03-30T02:13:06.846Z,76.70
2017-03-30T02:14:07.394Z,76.30
2017-03-30T02:15:07.401Z,76.50
2017-03-30T02:16:07.428Z,76.30
2017-03-30T02:17:07.495Z,76.50
2017-03-30T02:18:07.631Z,76.80
2017-03-30T02:19:08.097Z,76.50
2017-03-30T02:20:08.113Z,76.70
2017-03-30T02:21:08.134Z,76.50
2017-03-30T02:22:08.162Z,76.60
2017-03-30T02:23:08.206Z,76.40
2017-03-30T02:24:08.547Z,76.70
2017-03-30T02:25:08.634Z,76.60
2017-03-30T02:26:08.606Z,76.50
2017-03-30T02:27:09.472Z,76.70
2017-03-30T02:28:09.494Z,76.70
2017-03-30T02:29:09.841Z,76.60
2017-03-30T02:30:09.838Z,76.60
2017-03-30T02:31:09.838Z,76.70
2017-03-30T02:32:10.559Z,76.70
2017-03-30T02:33:10.631Z,76.60
2017-03-30T02:34:11.076Z,76.70
2017-03-30T02:35:11.359Z,76.90
2017-03-30T02:36:11.408Z,76.90
2017-03-30T02:37:11.430Z,77.00
2017-03-30T02:38:11.505Z,77.00
2017-03-30T02:39:12.771Z,77.00
2017-03-30T02:40:12.825Z,77.00
2017-03-30T02:41:12.859Z,77.00
2017-03-30T02:42:13.005Z,76.90
2017-03-30T02:43:13.230Z,77.00
2017-03-30T02:44:13.550Z,76.80
2017-03-30T02:45:13.694Z,76.70
2017-03-30T02:46:13.669Z,76.80
2017-03-30T02:47:13.794Z,76.60
2017-03-30T02:48:13.982Z,76.40
2017-03-30T02:49:14.435Z,76.50
2017-03-30T02:50:14.563Z,76.70
2017-03-30T02:51:14.644Z,76.40
2017-03-30T02:52:14.790Z,76.20
2017-03-30T02:53:14.899Z,76.30
2017-03-30T02:54:15.374Z,76.30
2017-03-30T02:55:15.606Z,76.30
2017-03-30T02:56:16.434Z,76.50
2017-03-30T02:57:16.533Z,76.10
2017-03-30T02:58:16.580Z,76.40
2017-03-30T02:59:16.961Z,76.30
2017-03-30T03:00:17.048Z,76.60
2017-03-30T03:01:17.075Z,77.20
2017-03-30T03:02:17.241Z,76.50
2017-03-30T03:03:17.286Z,76.30
2017-03-30T03:04:17.608Z,76.20
2017-03-30T03:05:17.626Z,76.30
2017-03-30T03:06:17.804Z,76.20
2017-03-30T03:07:17.822Z,76.20
2017-03-30T03:08:17.961Z,76.00
2017-03-30T03:09:18.252Z,76.00
2017-03-30T03:10:18.333Z,76.00
2017-03-30T03:11:18.377Z,75.80
2017-03-30T03:12:18.419Z,75.70
2017-03-30T03:13:18.484Z,75.80
2017-03-30T03:14:18.800Z,76.00
2017-03-30T03:15:18.830Z,76.10
2017-03-30T03:16:18.862Z,76.10
2017-03-30T03:17:18.924Z,76.10
2017-03-30T03:18:19.103Z,76.10
2017-03-30T03:19:19.461Z,76.00
2017-03-30T03:20:19.480Z,75.90
2017-03-30T03:21:19.599Z,75.80
2017-03-30T03:22:19.737Z,75.60
2017-03-30T03:23:19.859Z,75.90
2017-03-30T03:24:20.296Z,75.70
2017-03-30T03:25:20.422Z,75.70
2017-03-30T03:26:21.183Z,75.70
2017-03-30T03:27:21.225Z,75.40
2017-03-30T03:28:21.240Z,75.50
2017-03-30T03:29:21.679Z,75.40
2017-03-30T03:30:21.690Z,75.40
2017-03-30T03:31:21.732Z,75.40
2017-03-30T03:32:21.749Z,75.50
2017-03-30T03:33:21.814Z,75.20
2017-03-30T03:34:22.213Z,75.00
2017-03-30T03:35:22.277Z,75.20
2017-03-30T03:36:22.422Z,75.60
2017-03-30T03:37:22.453Z,75.60
2017-03-30T03:38:22.695Z,75.60
2017-03-30T03:39:23.075Z,75.60
2017-03-30T03:40:23.308Z,75.60
2017-03-30T03:41:23.355Z,75.80
2017-03-30T03:42:23.435Z,75.80
2017-03-30T03:43:23.476Z,75.70
2017-03-30T03:44:23.942Z,75.60
2017-03-30T03:45:23.988Z,75.80
2017-03-30T03:46:24.030Z,75.70
2017-03-30T03:47:24.068Z,75.70
2017-03-30T03:48:24.122Z,75.50
2017-03-30T03:49:24.474Z,75.70
2017-03-30T03:50:24.483Z,75.60
2017-03-30T03:51:24.617Z,75.50
2017-03-30T03:52:24.650Z,75.40
2017-03-30T03:53:25.425Z,75.40
2017-03-30T03:54:25.906Z,75.20
2017-03-30T03:55:25.986Z,75.00
2017-03-30T03:56:26.050Z,75.20
2017-03-30T03:57:26.105Z,75.10
2017-03-30T03:58:26.475Z,75.10
2017-03-30T03:59:26.877Z,75.00
2017-03-30T04:00:26.937Z,74.70
2017-03-30T04:01:26.963Z,74.60
2017-03-30T04:02:27.047Z,74.70
2017-03-30T04:03:27.129Z,74.70
2017-03-30T04:04:27.524Z,74.80
2017-03-30T04:05:28.318Z,74.70
2017-03-30T04:06:28.333Z,74.50
2017-03-30T04:07:28.536Z,74.70
2017-03-30T04:08:28.610Z,74.40
2017-03-30T04:09:28.907Z,74.50
2017-03-30T04:10:28.933Z,74.50
2017-03-30T04:11:28.943Z,74.70
2017-03-30T04:12:28.983Z,74.50
2017-03-30T04:13:29.041Z,74.70
2017-03-30T04:14:29.337Z,75.00
2017-03-30T04:15:29.425Z,74.90
2017-03-30T04:16:29.463Z,74.80
2017-03-30T04:17:29.521Z,74.90
2017-03-30T04:18:29.565Z,74.80
2017-03-30T04:19:29.973Z,74.70
2017-03-30T04:20:30.016Z,74.60
2017-03-30T04:21:30.086Z,74.60
2017-03-30T04:22:30.155Z,74.40
2017-03-30T04:23:30.134Z,74.50
2017-03-30T04:24:30.631Z,74.80
2017-03-30T04:25:30.766Z,74.80
2017-03-30T04:26:30.821Z,74.60
2017-03-30T04:27:30.885Z,74.40
2017-03-30T04:28:30.882Z,73.90
2017-03-30T04:29:31.384Z,74.00
2017-03-30T04:30:31.455Z,74.00
2017-03-30T04:31:31.584Z,74.10
2017-03-30T04:32:31.663Z,74.00
2017-03-30T04:33:31.710Z,74.00
2017-03-30T04:34:32.126Z,74.20
2017-03-30T04:35:32.218Z,74.10
2017-03-30T04:36:32.899Z,74.10
2017-03-30T04:37:32.935Z,73.90
2017-03-30T04:38:32.943Z,73.90
2017-03-30T04:39:33.366Z,73.90
2017-03-30T04:40:33.446Z,74.60
2017-03-30T04:41:33.498Z,73.90
2017-03-30T04:42:33.531Z,73.80
2017-03-30T04:43:33.622Z,74.00
2017-03-30T04:44:34.104Z,74.10
2017-03-30T04:45:34.270Z,74.10
2017-03-30T04:46:34.394Z,74.00
2017-03-30T04:47:34.415Z,73.80
2017-03-30T04:48:34.523Z,74.00
2017-03-30T04:49:34.914Z,74.00
2017-03-30T04:50:34.966Z,74.00
2017-03-30T04:51:35.203Z,74.10
2017-03-30T04:52:36.134Z,74.10
2017-03-30T04:53:36.150Z,74.00
2017-03-30T04:54:36.577Z,73.90
2017-03-30T04:55:36.606Z,73.90
2017-03-30T04:56:36.805Z,73.90
2017-03-30T04:57:36.979Z,73.90
2017-03-30T04:58:37.043Z,73.60
2017-03-30T04:59:37.438Z,73.70
2017-03-30T05:00:37.482Z,73.60
2017-03-30T05:01:37.511Z,73.70
2017-03-30T05:02:37.543Z,73.70
2017-03-30T05:03:37.641Z,73.90
2017-03-30T05:04:37.994Z,73.90
2017-03-30T05:05:38.063Z,73.80
2017-03-30T05:06:38.161Z,74.10
2017-03-30T05:07:37.454Z,73.80
2017-03-30T05:08:37.522Z,73.30
2017-03-30T05:09:37.686Z,73.30
2017-03-30T05:10:38.192Z,73.10
2017-03-30T05:11:38.338Z,73.20
2017-03-30T05:12:38.473Z,73.30
2017-03-30T05:13:38.662Z,73.40
2017-03-30T05:14:38.881Z,73.40
2017-03-30T05:15:39.342Z,73.50
2017-03-30T05:16:40.162Z,73.40
2017-03-30T05:17:41.050Z,73.40
2017-03-30T05:18:41.075Z,73.20
2017-03-30T05:19:41.159Z,72.80
2017-03-30T05:20:41.754Z,72.80
2017-03-30T05:21:41.815Z,73.10
2017-03-30T05:22:41.973Z,73.00
2017-03-30T05:23:42.043Z,73.00
2017-03-30T05:24:42.106Z,73.10
2017-03-30T05:25:42.478Z,73.30
2017-03-30T05:26:42.727Z,73.30
2017-03-30T05:27:42.814Z,73.50
2017-03-30T05:28:42.921Z,73.10
2017-03-30T05:29:42.950Z,73.90
2017-03-30T05:30:43.346Z,73.20
2017-03-30T05:31:43.441Z,73.60
2017-03-30T05:32:43.589Z,73.30
2017-03-30T05:33:43.646Z,73.30
2017-03-30T05:34:44.554Z,73.30
2017-03-30T05:35:44.983Z,73.30
2017-03-30T05:36:45.771Z,74.00
2017-03-30T05:37:45.892Z,73.40
2017-03-30T05:38:46.119Z,73.30
2017-03-30T05:39:46.261Z,73.40
2017-03-30T05:40:46.693Z,73.00
2017-03-30T05:41:46.709Z,73.10
2017-03-30T05:42:46.725Z,73.20
2017-03-30T05:43:46.786Z,73.20
2017-03-30T05:44:47.595Z,73.30
2017-03-30T05:45:48.005Z,72.80
2017-03-30T05:46:48.054Z,72.70
2017-03-30T05:47:48.111Z,73.50
2017-03-30T05:48:48.255Z,72.60
2017-03-30T05:49:48.269Z,72.80
2017-03-30T05:50:48.699Z,72.80
2017-03-30T05:51:48.731Z,72.80
2017-03-30T05:52:48.813Z,72.80
2017-03-30T05:53:48.905Z,73.10
2017-03-30T05:54:49.138Z,72.90
2017-03-30T05:55:49.544Z,72.80
2017-03-30T05:56:49.610Z,72.60
2017-03-30T05:57:49.642Z,72.30
2017-03-30T05:58:49.638Z,72.70
2017-03-30T05:59:49.699Z,72.40
2017-03-30T06:00:52.135Z,72.50
2017-03-30T06:01:52.154Z,72.90
2017-03-30T06:02:52.231Z,72.90
2017-03-30T06:03:52.309Z,72.80
2017-03-30T06:04:52.358Z,73.20
2017-03-30T06:05:53.467Z,72.40
2017-03-30T06:06:53.535Z,72.30
2017-03-30T06:07:53.581Z,72.30
2017-03-30T06:08:53.653Z,72.40
2017-03-30T06:09:53.796Z,72.50
2017-03-30T06:10:54.160Z,72.80
2017-03-30T06:11:54.214Z,72.70
2017-03-30T06:12:54.355Z,72.70
2017-03-30T06:13:54.417Z,72.80
2017-03-30T06:14:54.572Z,72.70
2017-03-30T06:15:54.922Z,73.50
2017-03-30T06:16:55.035Z,73.10
2017-03-30T06:17:55.086Z,73.00
2017-03-30T06:18:55.109Z,72.80
2017-03-30T06:19:55.207Z,73.20
2017-03-30T06:20:55.826Z,73.40
2017-03-30T06:21:55.883Z,73.10
2017-03-30T06:22:55.927Z,73.50
2017-03-30T06:23:56.151Z,73.50
2017-03-30T06:24:56.259Z,73.40
2017-03-30T06:25:56.683Z,74.50
2017-03-30T06:26:57.491Z,73.80
2017-03-30T06:27:57.613Z,73.60
2017-03-30T06:28:57.642Z,73.90
2017-03-30T06:29:57.737Z,73.80
2017-03-30T06:30:58.166Z,74.10
2017-03-30T06:31:58.330Z,74.40
2017-03-30T06:32:58.390Z,74.20
2017-03-30T06:33:59.239Z,74.20
2017-03-30T06:34:59.272Z,74.40
2017-03-30T06:35:59.703Z,74.40
2017-03-30T06:36:59.770Z,74.60
2017-03-30T06:37:59.784Z,74.20
2017-03-30T06:38:59.956Z,74.30
2017-03-30T06:40:00.070Z,74.40
2017-03-30T06:41:00.570Z,74.60
2017-03-30T06:42:01.404Z,73.80
2017-03-30T06:43:01.467Z,74.00
2017-03-30T06:44:01.538Z,74.40
2017-03-30T06:45:01.811Z,74.30
2017-03-30T06:46:02.923Z,74.60
2017-03-30T06:47:02.950Z,74.70
2017-03-30T06:48:02.908Z,75.00
2017-03-30T06:49:02.967Z,75.00
2017-03-30T06:50:03.104Z,74.60
2017-03-30T06:51:03.595Z,74.40
2017-03-30T06:52:03.702Z,74.10
2017-03-30T06:53:03.702Z,74.50
2017-03-30T06:54:03.809Z,74.60
2017-03-30T06:55:03.878Z,74.60
2017-03-30T06:56:04.395Z,74.50
2017-03-30T06:57:04.526Z,74.60
2017-03-30T06:58:04.579Z,75.00
2017-03-30T06:59:04.683Z,74.60
2017-03-30T07:00:04.750Z,74.80
2017-03-30T07:01:05.201Z,74.60
2017-03-30T07:02:05.253Z,74.70
2017-03-30T07:03:05.355Z,74.50
2017-03-30T07:04:05.467Z,74.70
2017-03-30T07:05:05.557Z,74.60
2017-03-30T07:06:05.984Z,74.20
2017-03-30T07:07:06.031Z,74.40
2017-03-30T07:08:06.098Z,74.40
2017-03-30T07:09:06.242Z,74.70
2017-03-30T07:10:06.398Z,74.70
2017-03-30T07:11:07.501Z,74.70
2017-03-30T07:12:07.595Z,73.80
2017-03-30T07:13:07.698Z,73.80
2017-03-30T07:14:07.791Z,74.10
2017-03-30T07:15:07.924Z,74.20
2017-03-30T07:16:08.382Z,74.40
2017-03-30T07:17:08.475Z,74.20
2017-03-30T07:18:08.518Z,73.90
2017-03-30T07:19:08.563Z,74.00
2017-03-30T07:20:08.598Z,73.80
2017-03-30T07:21:08.958Z,73.50
2017-03-30T07:22:09.726Z,73.80
2017-03-30T07:23:11.120Z,74.00
2017-03-30T07:24:11.303Z,73.90
2017-03-30T07:25:11.346Z,74.10
2017-03-30T07:26:11.710Z,74.10
2017-03-30T07:27:11.807Z,73.80
2017-03-30T07:28:12.623Z,74.40
2017-03-30T07:29:19.551Z,73.40
2017-03-30T07:30:19.698Z,73.40
2017-03-30T07:31:20.145Z,73.60
2017-03-30T07:32:20.222Z,73.70
2017-03-30T07:33:20.406Z,73.90
2017-03-30T07:34:20.454Z,74.10
2017-03-30T07:35:20.683Z,74.20
2017-03-30T07:36:21.114Z,74.10
2017-03-30T07:37:21.947Z,73.90
2017-03-30T07:38:22.034Z,73.90
2017-03-30T07:39:22.222Z,73.80
2017-03-30T07:40:22.334Z,74.10
2017-03-30T07:41:22.783Z,73.90
2017-03-30T07:42:22.978Z,73.80
2017-03-30T07:43:23.179Z,74.00
2017-03-30T07:44:24.019Z,74.20
2017-03-30T07:45:24.232Z,73.60
2017-03-30T07:46:24.668Z,73.60
2017-03-30T07:47:24.732Z,73.80
2017-03-30T07:48:24.745Z,73.80
2017-03-30T07:49:25.520Z,74.40
2017-03-30T07:50:25.562Z,73.00
2017-03-30T07:51:25.895Z,72.90
2017-03-30T07:52:26.701Z,73.00
2017-03-30T07:53:26.730Z,73.00
2017-03-30T07:54:26.784Z,73.10
2017-03-30T07:55:26.864Z,72.90
2017-03-30T07:56:27.182Z,72.80
2017-03-30T07:57:27.264Z,72.90
2017-03-30T07:58:27.608Z,72.90
2017-03-30T07:59:27.701Z,72.60
2017-03-30T08:00:27.844Z,72.30
2017-03-30T08:01:28.314Z,72.30
2017-03-30T08:02:28.469Z,72.30
2017-03-30T08:03:28.507Z,71.70
2017-03-30T08:04:28.598Z,71.80
2017-03-30T08:05:28.656Z,71.80
2017-03-30T08:06:29.063Z,71.80
2017-03-30T08:07:29.103Z,71.80
2017-03-30T08:08:29.188Z,71.80
2017-03-30T08:09:29.461Z,71.80
2017-03-30T08:10:29.515Z,72.30
2017-03-30T08:11:29.912Z,71.80
2017-03-30T08:12:29.927Z,71.90
2017-03-30T08:13:30.747Z,71.90
2017-03-30T08:14:30.886Z,71.90
2017-03-30T08:15:31.046Z,72.00
2017-03-30T08:16:31.384Z,72.10
2017-03-30T08:17:32.223Z,71.40
2017-03-30T08:18:32.303Z,72.50
2017-03-30T08:19:32.507Z,72.10
2017-03-30T08:20:32.544Z,71.60
2017-03-30T08:21:33.633Z,72.00
2017-03-30T08:22:33.685Z,72.00
2017-03-30T08:23:33.743Z,72.00
2017-03-30T08:24:33.775Z,72.00
2017-03-30T08:25:33.876Z,71.90
2017-03-30T08:26:34.259Z,72.00
2017-03-30T08:27:34.393Z,72.00
2017-03-30T08:28:34.552Z,71.90
2017-03-30T08:29:34.723Z,72.00
2017-03-30T08:30:34.870Z,71.90
2017-03-30T08:31:35.320Z,72.10
2017-03-30T08:32:35.425Z,71.90
2017-03-30T08:33:35.473Z,72.00
2017-03-30T08:34:35.639Z,72.00
2017-03-30T08:35:35.875Z,72.10
2017-03-30T08:36:36.435Z,72.10
2017-03-30T08:37:37.226Z,72.10
2017-03-30T08:38:37.251Z,71.50
2017-03-30T08:39:38.014Z,72.10
2017-03-30T08:40:38.146Z,71.30
2017-03-30T08:41:38.607Z,72.10
2017-03-30T08:42:38.678Z,72.30
2017-03-30T08:43:38.762Z,71.50
2017-03-30T08:44:38.803Z,71.40
2017-03-30T08:45:38.854Z,71.60
2017-03-30T08:46:39.243Z,71.00
2017-03-30T08:47:39.309Z,70.50
2017-03-30T08:48:39.338Z,70.30
2017-03-30T08:49:39.452Z,70.20
2017-03-30T08:50:39.515Z,70.20
2017-03-30T08:51:39.976Z,70.30
2017-03-30T08:52:40.118Z,68.80
2017-03-30T08:53:40.932Z,68.50
2017-03-30T08:54:41.718Z,67.60
2017-03-30T08:55:41.713Z,67.20
2017-03-30T08:56:42.070Z,67.10
2017-03-30T08:57:42.183Z,67.40
2017-03-30T08:58:42.244Z,67.20
2017-03-30T08:59:43.078Z,67.40
2017-03-30T09:00:43.085Z,66.70
2017-03-30T09:01:43.384Z,66.80
2017-03-30T09:02:43.604Z,66.20
2017-03-30T09:03:43.710Z,66.40
2017-03-30T09:04:43.901Z,66.40
2017-03-30T09:05:43.956Z,66.60
2017-03-30T09:06:44.333Z,66.30
2017-03-30T09:07:44.368Z,66.60
2017-03-30T09:08:44.461Z,66.60
2017-03-30T09:09:44.582Z,66.70
2017-03-30T09:10:44.655Z,66.20
2017-03-30T09:11:45.067Z,66.50
2017-03-30T09:12:45.358Z,66.70
2017-03-30T09:13:45.337Z,66.70
2017-03-30T09:14:45.399Z,67.20
2017-03-30T09:15:45.454Z,66.80
2017-03-30T09:16:45.873Z,66.90
2017-03-30T09:17:45.903Z,66.90
2017-03-30T09:18:45.951Z,66.80
2017-03-30T09:19:46.018Z,66.50
2017-03-30T09:20:48.963Z,65.80
2017-03-30T09:21:49.299Z,66.30
2017-03-30T09:22:49.263Z,66.00
2017-03-30T09:23:49.537Z,64.80
2017-03-30T09:24:49.633Z,65.60
2017-03-30T09:25:50.458Z,65.80
2017-03-30T09:26:50.885Z,65.40
2017-03-30T09:27:50.957Z,65.10
2017-03-30T09:28:51.071Z,64.90
2017-03-30T09:29:51.087Z,64.90
2017-03-30T09:30:51.082Z,65.20
2017-03-30T09:31:51.650Z,64.90
2017-03-30T09:32:51.817Z,64.90
2017-03-30T09:33:51.970Z,64.90
2017-03-30T09:34:52.066Z,65.00
2017-03-30T09:35:52.241Z,65.00
2017-03-30T09:36:52.601Z,65.10
2017-03-30T09:37:52.627Z,65.10
2017-03-30T09:38:52.712Z,64.20
2017-03-30T09:39:52.814Z,64.60
2017-03-30T09:40:53.770Z,64.60
2017-03-30T09:41:54.258Z,63.70
2017-03-30T09:42:54.359Z,64.10
2017-03-30T09:43:54.406Z,64.40
2017-03-30T09:44:54.545Z,64.60
2017-03-30T09:45:54.631Z,62.70
2017-03-30T09:46:55.008Z,63.30
2017-03-30T09:47:55.084Z,62.80
2017-03-30T09:48:55.163Z,62.90
2017-03-30T09:49:55.252Z,63.00
2017-03-30T09:50:55.304Z,62.70
2017-03-30T09:51:55.642Z,62.50
2017-03-30T09:52:55.737Z,62.30
2017-03-30T09:53:55.797Z,61.80
2017-03-30T09:54:55.887Z,61.60
2017-03-30T09:55:55.906Z,61.60
2017-03-30T09:56:56.263Z,61.30
2017-03-30T09:57:56.331Z,60.60
2017-03-30T09:58:56.482Z,60.70
2017-03-30T09:59:56.678Z,60.60
2017-03-30T10:00:56.726Z,60.50
2017-03-30T10:01:57.245Z,60.20
2017-03-30T10:02:57.226Z,60.10
2017-03-30T10:03:57.409Z,60.40
2017-03-30T10:04:57.509Z,60.00
2017-03-30T10:05:57.566Z,59.70
2017-03-30T10:06:58.001Z,58.80
2017-03-30T10:07:58.123Z,59.30
2017-03-30T10:08:58.153Z,57.70
2017-03-30T10:09:58.220Z,58.50
2017-03-30T10:10:59.002Z,57.90
2017-03-30T10:11:59.370Z,57.00
2017-03-30T10:12:59.420Z,56.50
2017-03-30T10:13:59.468Z,56.10
2017-03-30T10:14:59.693Z,56.00
2017-03-30T10:16:00.484Z,55.70
2017-03-30T10:17:00.831Z,55.00
2017-03-30T10:18:01.616Z,54.60
2017-03-30T10:19:01.721Z,54.00
2017-03-30T10:20:01.788Z,54.10
2017-03-30T10:21:01.888Z,54.50
2017-03-30T10:22:02.238Z,54.50
2017-03-30T10:23:02.319Z,53.90
2017-03-30T10:24:02.329Z,54.20
2017-03-30T10:25:02.474Z,54.30
2017-03-30T10:26:02.514Z,54.80
2017-03-30T10:27:03.009Z,55.00
2017-03-30T10:28:03.058Z,54.70
2017-03-30T10:29:03.089Z,54.40
2017-03-30T10:30:03.186Z,54.70
2017-03-30T10:31:03.228Z,55.40
2017-03-30T10:32:03.667Z,54.70
2017-03-30T10:33:03.721Z,55.70
2017-03-30T10:34:03.891Z,55.80
2017-03-30T10:35:10.716Z,55.90
2017-03-30T10:36:10.866Z,55.10
2017-03-30T10:37:12.010Z,55.50
2017-03-30T10:38:12.128Z,54.90
2017-03-30T10:39:12.295Z,55.20
2017-03-30T10:40:12.407Z,55.50
2017-03-30T10:41:12.459Z,54.80
2017-03-30T10:42:12.981Z,55.20
2017-03-30T10:43:13.056Z,54.50
2017-03-30T10:44:13.118Z,54.10
2017-03-30T10:45:13.227Z,54.30
2017-03-30T10:46:13.323Z,54.60
2017-03-30T10:47:13.816Z,55.10
2017-03-30T10:48:13.926Z,55.40
2017-03-30T10:49:13.979Z,55.90
2017-03-30T10:50:14.072Z,55.50
2017-03-30T10:51:14.158Z,54.20
2017-03-30T10:52:14.675Z,54.60
2017-03-30T10:53:15.623Z,54.10
2017-03-30T10:54:15.664Z,53.30
2017-03-30T10:55:15.728Z,52.70
2017-03-30T10:56:15.807Z,51.10
2017-03-30T10:57:16.248Z,51.20
2017-03-30T10:58:16.308Z,51.20
2017-03-30T10:59:16.330Z,50.10
2017-03-30T11:00:16.397Z,49.00
2017-03-30T11:01:16.778Z,47.70
2017-03-30T11:02:17.239Z,48.40
2017-03-30T11:03:17.581Z,48.50
2017-03-30T11:04:17.752Z,48.40
2017-03-30T11:05:17.699Z,48.30
2017-03-30T11:06:17.800Z,48.40
2017-03-30T11:07:18.375Z,47.80
2017-03-30T11:08:18.418Z,49.00
2017-03-30T11:09:18.550Z,48.60
2017-03-30T11:10:18.561Z,49.10
2017-03-30T11:11:18.582Z,48.80
2017-03-30T11:12:19.394Z,50.40
2017-03-30T11:13:19.442Z,49.90
2017-03-30T11:14:19.610Z,49.90
2017-03-30T11:15:19.672Z,49.60
2017-03-30T11:16:19.728Z,50.60
2017-03-30T11:17:20.149Z,51.40
2017-03-30T11:18:20.224Z,50.60
2017-03-30T11:19:20.224Z,50.60
2017-03-30T11:20:20.240Z,51.80
2017-03-30T11:21:20.279Z,50.50
2017-03-30T11:22:20.919Z,50.70
2017-03-30T11:23:20.956Z,51.50
2017-03-30T11:24:20.997Z,52.30
2017-03-30T11:25:21.033Z,51.60
2017-03-30T11:26:21.053Z,51.40
2017-03-30T11:27:21.383Z,52.10
2017-03-30T11:28:21.435Z,52.40
2017-03-30T11:29:21.484Z,52.50
2017-03-30T11:30:21.646Z,51.40
2017-03-30T11:31:21.746Z,52.90
2017-03-30T11:32:22.296Z,52.40
2017-03-30T11:33:22.408Z,51.50
2017-03-30T11:34:22.443Z,50.70
2017-03-30T11:35:22.611Z,50.80
2017-03-30T11:36:22.650Z,50.60
2017-03-30T11:37:23.162Z,51.00
2017-03-30T11:38:23.185Z,50.60
2017-03-30T11:39:23.232Z,50.40
2017-03-30T11:40:23.255Z,50.60
2017-03-30T11:41:23.349Z,50.80
2017-03-30T11:42:23.975Z,51.10
2017-03-30T11:43:24.158Z,51.40
2017-03-30T11:44:24.225Z,51.00
2017-03-30T11:45:24.658Z,51.30
2017-03-30T11:46:24.857Z,52.50
2017-03-30T11:47:25.917Z,51.60
2017-03-30T11:48:29.102Z,52.10
2017-03-30T11:49:29.175Z,52.50
2017-03-30T11:50:29.259Z,53.40
2017-03-30T11:51:29.311Z,53.30
2017-03-30T11:52:29.760Z,52.40
2017-03-30T11:53:29.921Z,52.60
2017-03-30T11:54:30.000Z,53.20
2017-03-30T11:55:30.072Z,53.50
2017-03-30T11:56:30.182Z,53.60
2017-03-30T11:57:30.564Z,53.50
2017-03-30T11:58:30.777Z,53.20
2017-03-30T11:59:30.846Z,53.90
2017-03-30T12:00:30.897Z,53.90
2017-03-30T12:01:30.934Z,53.90
2017-03-30T12:02:31.410Z,53.80
2017-03-30T12:03:31.447Z,54.00
2017-03-30T12:04:31.466Z,54.50
2017-03-30T12:05:31.531Z,53.80
2017-03-30T12:06:31.540Z,54.10
2017-03-30T12:07:31.951Z,54.40
2017-03-30T12:08:31.995Z,54.50
2017-03-30T12:09:32.050Z,54.30
2017-03-30T12:10:32.179Z,54.20
2017-03-30T12:11:32.331Z,54.50
2017-03-30T12:12:32.806Z,54.00
2017-03-30T12:13:32.833Z,54.00
2017-03-30T12:14:33.038Z,54.20
2017-03-30T12:15:33.062Z,54.50
2017-03-30T12:16:33.114Z,54.50
2017-03-30T12:17:33.455Z,54.90
2017-03-30T12:18:33.469Z,55.30
2017-03-30T12:19:33.526Z,55.00
2017-03-30T12:20:33.584Z,53.50
2017-03-30T12:21:33.604Z,53.50
2017-03-30T12:22:34.036Z,53.90
2017-03-30T12:23:34.081Z,54.20
2017-03-30T12:24:34.139Z,54.00
2017-03-30T12:25:34.365Z,53.80
2017-03-30T12:26:34.479Z,53.40
2017-03-30T12:27:35.001Z,53.70
2017-03-30T12:28:35.038Z,53.10
2017-03-30T12:29:35.218Z,53.60
2017-03-30T12:30:35.231Z,53.10
2017-03-30T12:31:35.332Z,53.20
2017-03-30T12:32:35.681Z,53.60
2017-03-30T12:33:35.772Z,52.90
2017-03-30T12:34:35.762Z,53.50
2017-03-30T12:35:36.428Z,53.90
2017-03-30T12:36:36.635Z,53.80
2017-03-30T12:37:37.742Z,53.00
2017-03-30T12:38:37.758Z,53.30
2017-03-30T12:39:37.779Z,52.40
2017-03-30T12:40:38.574Z,52.40
2017-03-30T12:41:38.582Z,51.80
2017-03-30T12:42:39.751Z,52.10
2017-03-30T12:43:39.840Z,52.40
2017-03-30T12:44:39.978Z,52.50
2017-03-30T12:45:40.028Z,52.50
2017-03-30T12:46:40.267Z,52.40
2017-03-30T12:47:40.712Z,52.60
2017-03-30T12:48:40.735Z,52.90
2017-03-30T12:49:40.821Z,52.30
2017-03-30T12:50:40.831Z,52.60
2017-03-30T12:51:41.619Z,52.40
2017-03-30T12:52:42.299Z,52.10
2017-03-30T12:53:42.351Z,52.00
2017-03-30T12:54:42.445Z,52.00
2017-03-30T12:55:42.446Z,52.20